Time;durP1;ratioP1;P1;durP2;ratioP2;P2;SDS_P1;SDS_P2;PMS_P1;PMS_P2;Temp;Humidity;BMP_temperature;BMP_pressure;BME280_temperature;BME280_humidity;BME280_pressure;Samples;Min_cycle;Max_cycle;Signal;HPM_P1;HPM_P2
2021/09/15 00:01:19;;;;;;;17.60;13.28;;;;;;;11.11;73.06;97454.44;1714040;83;27593;-96
2021/09/15 00:03:45;;;;;;;15.00;13.35;;;;;;;11.11;73.12;97455.80;1719350;81;25280;-95
2021/09/15 00:06:12;;;;;;;18.20;13.10;;;;;;;11.08;73.16;97452.19;1726126;81;25426;-95
2021/09/15 00:08:39;;;;;;;15.88;13.15;;;;;;;11.03;73.15;97446.06;1712613;82;25686;-93
2021/09/15 00:11:06;;;;;;;17.02;12.43;;;;;;;10.98;73.33;97447.77;1719802;81;26410;-96
2021/09/15 00:13:33;;;;;;;16.55;12.85;;;;;;;10.98;73.39;97454.00;1715427;82;27402;-92
2021/09/15 00:15:59;;;;;;;16.30;13.05;;;;;;;10.96;73.37;97447.97;1717315;82;25718;-95
2021/09/15 00:18:26;;;;;;;16.75;12.53;;;;;;;10.95;73.41;97447.66;1707280;83;25722;-95
2021/09/15 00:20:53;;;;;;;14.90;11.68;;;;;;;10.92;73.32;97445.38;1727235;83;26695;-92
2021/09/15 00:23:19;;;;;;;15.63;12.07;;;;;;;10.90;73.36;97455.56;1726941;83;26457;-94
2021/09/15 00:25:46;;;;;;;13.85;11.60;;;;;;;10.89;73.43;97455.77;1726515;82;27376;-95
2021/09/15 00:28:12;;;;;;;15.50;12.70;;;;;;;10.88;73.39;97452.23;1721761;82;25614;-96
2021/09/15 00:30:39;;;;;;;13.62;10.95;;;;;;;10.84;73.29;97452.38;1711363;81;25735;-92
2021/09/15 00:33:06;;;;;;;15.88;11.50;;;;;;;10.82;73.31;97457.15;1725930;81;25673;-93
2021/09/15 00:35:32;;;;;;;15.72;12.40;;;;;;;10.80;73.38;97460.58;1726132;82;25753;-94
2021/09/15 00:37:59;;;;;;;19.55;13.30;;;;;;;10.78;73.44;97455.38;1727437;82;27519;-93
2021/09/15 00:40:25;;;;;;;14.90;12.10;;;;;;;10.77;73.51;97450.19;1727092;83;25765;-91
2021/09/15 00:42:52;;;;;;;18.35;13.10;;;;;;;10.75;73.54;97457.14;1726652;82;25327;-96
2021/09/15 00:45:19;;;;;;;14.58;12.73;;;;;;;10.74;73.50;97450.63;1726849;82;25829;-95
2021/09/15 00:47:45;;;;;;;16.40;13.08;;;;;;;10.67;73.49;97457.90;1726430;83;25370;-95
2021/09/15 00:50:13;;;;;;;15.60;12.47;;;;;;;10.66;73.61;97454.89;1725799;82;27499;-95
2021/09/15 00:52:39;;;;;;;15.83;13.10;;;;;;;10.66;73.75;97457.59;1726623;81;25829;-94
2021/09/15 00:55:07;;;;;;;16.12;11.90;;;;;;;10.65;73.75;97457.27;1726925;83;26425;-92
2021/09/15 00:57:34;;;;;;;15.08;12.15;;;;;;;10.66;73.68;97464.34;1727312;83;26280;-95
2021/09/15 01:00:00;;;;;;;18.17;12.55;;;;;;;10.63;73.68;97468.28;1727600;82;25262;-95
2021/09/15 01:02:28;;;;;;;14.13;11.68;;;;;;;10.61;73.66;97465.50;1725684;82;27524;-95
2021/09/15 01:04:55;;;;;;;15.08;12.40;;;;;;;10.57;73.55;97462.39;1727319;83;25760;-95
2021/09/15 01:07:22;;;;;;;15.50;12.98;;;;;;;10.54;73.65;97459.27;1725573;82;25291;-87
2021/09/15 01:09:49;;;;;;;14.55;12.80;;;;;;;10.53;73.69;97461.14;1706933;82;26399;-95
2021/09/15 01:12:17;;;;;;;18.37;13.72;;;;;;;10.52;73.75;97462.69;1726397;82;25848;-96
2021/09/15 01:14:44;;;;;;;14.23;12.25;;;;;;;10.51;73.82;97455.63;1725678;81;27534;-94
2021/09/15 01:17:11;;;;;;;16.93;13.18;;;;;;;10.51;73.86;97455.63;1725536;82;25742;-90
2021/09/15 01:19:37;;;;;;;15.00;12.37;;;;;;;10.50;73.91;97452.65;1725544;81;25719;-93
2021/09/15 01:22:04;;;;;;;18.92;12.85;;;;;;;10.45;73.90;97452.75;1726617;81;26621;-92
2021/09/15 01:24:31;;;;;;;17.25;13.93;;;;;;;10.44;73.99;97453.78;1725412;81;25730;-93
2021/09/15 01:26:59;;;;;;;15.78;13.65;;;;;;;10.44;74.01;97458.34;1726782;81;27438;-93
2021/09/15 01:29:30;;;;;;;16.07;13.25;;;;;;;10.43;74.06;97456.17;1725458;81;25754;-96
2021/09/15 01:32:03;;;;;;;19.10;13.80;;;;;;;10.40;74.12;97456.58;1725608;81;26381;-94
2021/09/15 01:34:42;;;;;;;16.77;13.48;;;;;;;10.39;74.10;97448.69;1725950;81;25792;-96
2021/09/15 01:37:13;;;;;;;19.23;13.45;;;;;;;10.35;74.08;97455.05;1726333;82;25704;-87
2021/09/15 01:39:40;;;;;;;18.30;13.18;;;;;;;10.31;74.21;97449.75;1707456;83;27357;-88
2021/09/15 01:42:09;;;;;;;18.10;14.40;;;;;;;10.31;74.25;97452.44;1724264;82;25802;-94
2021/09/15 01:44:46;;;;;;;19.82;14.38;;;;;;;10.32;74.33;97448.71;1701960;82;25511;-95
2021/09/15 01:47:16;;;;;;;19.62;14.07;;;;;;;10.30;74.38;97443.20;1703381;82;25901;-96
2021/09/15 01:49:44;;;;;;;18.32;14.15;;;;;;;10.22;74.35;97445.61;1691879;83;25690;-93
2021/09/15 01:52:14;;;;;;;15.90;13.30;;;;;;;10.19;74.58;97449.23;1727476;82;27336;-94
2021/09/15 01:54:41;;;;;;;19.17;14.15;;;;;;;10.21;74.67;97451.20;1727599;82;25793;-93
2021/09/15 01:57:07;;;;;;;20.20;13.68;;;;;;;10.21;74.62;97449.34;1727371;82;26520;-93
2021/09/15 01:59:34;;;;;;;16.40;13.10;;;;;;;10.20;74.56;97444.98;1727364;82;25821;-93
2021/09/15 02:02:00;;;;;;;18.00;12.98;;;;;;;10.19;74.52;97444.66;1727576;82;25773;-95
2021/09/15 02:04:27;;;;;;;18.87;14.40;;;;;;;10.16;74.48;97450.44;1727786;82;27357;-93
2021/09/15 02:06:55;;;;;;;20.77;14.25;;;;;;;10.07;74.48;97447.64;1728038;82;25979;-96
2021/09/15 02:09:22;;;;;;;20.55;15.83;;;;;;;10.01;74.71;97444.44;1727753;82;25233;-96
2021/09/15 02:11:48;;;;;;;20.25;15.43;;;;;;;10.02;74.91;97442.05;1727867;82;25771;-94
2021/09/15 02:14:15;;;;;;;20.65;15.38;;;;;;;10.04;75.02;97438.61;1727629;82;25222;-95
2021/09/15 02:16:42;;;;;;;21.93;15.35;;;;;;;10.07;74.98;97432.80;1698362;83;27522;-91
2021/09/15 02:19:10;;;;;;;20.10;15.23;;;;;;;10.05;74.98;97434.36;1727420;82;25255;-93
2021/09/15 02:21:37;;;;;;;20.68;15.93;;;;;;;10.05;74.95;97431.66;1727774;82;25829;-95
2021/09/15 02:24:04;;;;;;;23.27;17.45;;;;;;;10.04;74.92;97435.39;1706828;82;25775;-93
2021/09/15 02:26:31;;;;;;;20.40;14.65;;;;;;;9.99;74.99;97434.38;1698015;83;25650;-92
2021/09/15 02:28:59;;;;;;;22.58;15.78;;;;;;;9.95;75.05;97433.95;1727546;83;27516;-90
2021/09/15 02:31:26;;;;;;;20.30;16.00;;;;;;;9.92;75.14;97433.00;1727437;83;25470;-94
2021/09/15 02:33:52;;;;;;;22.22;14.93;;;;;;;9.90;75.16;97428.88;1727553;83;25802;-95
2021/09/15 02:36:20;;;;;;;21.35;14.45;;;;;;;9.93;75.31;97435.18;1727518;82;25795;-93
2021/09/15 02:38:46;;;;;;;19.70;14.35;;;;;;;9.94;75.30;97432.80;1727680;82;25305;-94
2021/09/15 02:41:13;;;;;;;20.95;15.23;;;;;;;9.94;75.29;97437.67;1727475;82;28036;-91
2021/09/15 02:43:40;;;;;;;19.27;14.30;;;;;;;9.94;75.23;97434.15;1727411;82;25811;-95
2021/09/15 02:46:07;;;;;;;18.32;14.75;;;;;;;9.91;75.16;97431.86;1727488;82;25901;-95
2021/09/15 02:48:34;;;;;;;18.82;14.73;;;;;;;9.88;75.27;97438.52;1732416;81;26346;-94
2021/09/15 02:51:00;;;;;;;21.10;15.30;;;;;;;9.87;75.34;97436.02;1726891;83;25292;-95
2021/09/15 02:53:27;;;;;;;16.97;14.15;;;;;;;9.87;75.32;97436.02;1740356;82;28210;-95
2021/09/15 02:55:54;;;;;;;18.75;14.38;;;;;;;9.85;75.29;97432.70;1726403;82;25259;-95
2021/09/15 02:58:20;;;;;;;19.30;14.15;;;;;;;9.83;75.23;97438.80;1726975;83;25551;-94
2021/09/15 03:00:47;;;;;;;17.07;13.03;;;;;;;9.77;75.13;97449.91;1740485;82;25835;-94
2021/09/15 03:03:13;;;;;;;20.57;13.68;;;;;;;9.75;75.11;97440.67;1740249;82;25718;-94
2021/09/15 03:05:40;;;;;;;18.98;13.32;;;;;;;9.72;75.12;97442.42;1740297;82;27362;-94
2021/09/15 03:08:06;;;;;;;18.98;14.98;;;;;;;9.67;75.14;97439.50;1726878;83;25848;-92
2021/09/15 03:10:33;;;;;;;19.00;14.60;;;;;;;9.67;75.25;97440.84;1740130;82;25758;-95
2021/09/15 03:13:00;;;;;;;16.60;13.75;;;;;;;9.65;75.28;97438.91;1726866;82;26015;-95
2021/09/15 03:15:26;;;;;;;21.73;15.23;;;;;;;9.62;75.29;97435.78;1726617;82;25286;-94
2021/09/15 03:17:53;;;;;;;19.00;13.75;;;;;;;9.61;75.39;97431.42;1740360;82;27585;-95
2021/09/15 03:20:20;;;;;;;19.05;14.60;;;;;;;9.58;75.41;97436.69;1739972;82;25995;-94
2021/09/15 03:22:46;;;;;;;20.25;15.00;;;;;;;9.55;75.44;97431.70;1740396;82;25697;-92
2021/09/15 03:25:13;;;;;;;18.55;14.18;;;;;;;9.55;75.48;97438.44;1740414;82;25871;-96
2021/09/15 03:27:39;;;;;;;23.38;15.80;;;;;;;9.56;75.50;97438.75;1740625;82;25684;-95
2021/09/15 03:30:09;;;;;;;22.07;16.73;;;;;;;9.55;75.47;97435.75;1740348;82;27612;-95
2021/09/15 03:32:35;;;;;;;29.27;17.35;;;;;;;9.54;75.51;97430.59;1740167;82;25812;-95
2021/09/15 03:35:02;;;;;;;23.32;16.48;;;;;;;9.51;75.57;97428.30;1723020;82;25708;-94
2021/09/15 03:37:28;;;;;;;25.35;17.07;;;;;;;9.47;75.81;97427.03;1740291;82;25680;-95
2021/09/15 03:39:55;;;;;;;24.50;17.57;;;;;;;9.49;75.94;97423.11;1706633;82;25295;-96
2021/09/15 03:42:21;;;;;;;23.87;17.12;;;;;;;9.53;75.99;97420.84;1740172;82;27593;-95
2021/09/15 03:44:48;;;;;;;27.48;16.45;;;;;;;9.53;76.04;97427.58;1740285;82;25680;-92
2021/09/15 03:47:15;;;;;;;24.95;17.30;;;;;;;9.53;76.11;97430.27;1726505;82;25709;-94
2021/09/15 03:49:41;;;;;;;24.37;17.55;;;;;;;9.52;76.23;97435.34;1706820;81;25926;-95
2021/09/15 03:52:08;;;;;;;28.00;18.25;;;;;;;9.50;76.36;97427.47;1716573;82;25758;-94
2021/09/15 03:54:35;;;;;;;29.00;18.48;;;;;;;9.54;76.58;97431.39;1700301;83;28237;-92
2021/09/15 03:57:03;;;;;;;28.70;18.32;;;;;;;9.59;76.63;97430.27;1692718;83;25850;-93
2021/09/15 03:59:29;;;;;;;29.32;18.92;;;;;;;9.59;76.60;97431.63;1727063;82;25749;-95
2021/09/15 04:01:56;;;;;;;26.25;19.15;;;;;;;9.61;76.56;97436.30;1726790;81;25745;-94
2021/09/15 04:04:23;;;;;;;24.30;18.35;;;;;;;9.61;76.60;97438.98;1727148;81;25487;-95
2021/09/15 04:06:51;;;;;;;24.52;17.92;;;;;;;9.59;76.60;97437.02;1727241;81;27368;-93
2021/09/15 04:09:18;;;;;;;25.25;16.82;;;;;;;9.59;76.52;97434.31;1727074;82;25722;-94
2021/09/15 04:11:44;;;;;;;19.52;15.00;;;;;;;9.59;76.50;97436.17;1727313;82;25307;-92
2021/09/15 04:14:11;;;;;;;20.68;16.77;;;;;;;9.59;76.52;97440.22;1727347;82;26342;-92
2021/09/15 04:16:37;;;;;;;20.35;15.88;;;;;;;9.56;76.53;97436.58;1727554;81;25776;-96
2021/09/15 04:19:04;;;;;;;19.60;15.75;;;;;;;9.54;76.49;97443.52;1727647;82;27441;-94
2021/09/15 04:21:30;;;;;;;21.37;16.02;;;;;;;9.49;76.54;97433.88;1726968;82;25789;-94
2021/09/15 04:24:31;;;;;;;23.92;16.75;;;;;;;9.50;76.53;97440.10;1726966;81;25813;-94
2021/09/15 04:32:11;;;;;;;23.22;17.20;;;;;;;9.47;76.50;97431.91;1726619;82;27415;-94
2021/09/15 04:34:38;;;;;;;26.30;17.50;;;;;;;9.43;76.51;97439.23;1727053;81;25762;-93
2021/09/15 04:37:05;;;;;;;26.37;17.65;;;;;;;9.37;76.58;97431.47;1726914;82;25775;-94
2021/09/15 04:39:32;;;;;;;29.02;18.87;;;;;;;9.38;76.69;97439.86;1727198;82;25771;-93
2021/09/15 04:41:58;;;;;;;30.62;18.52;;;;;;;9.41;76.76;97434.59;1726634;81;25740;-94
2021/09/15 04:44:25;;;;;;;29.15;17.48;;;;;;;9.43;76.82;97437.38;1726685;81;28388;-93
2021/09/15 04:46:51;;;;;;;25.50;16.02;;;;;;;9.47;76.91;97438.64;1726874;83;25752;-93
2021/09/15 04:49:18;;;;;;;23.25;17.27;;;;;;;9.49;77.00;97437.92;1726780;82;26416;-93
2021/09/15 04:51:44;;;;;;;25.55;17.12;;;;;;;9.53;76.99;97439.19;1727024;81;25844;-92
2021/09/15 04:54:11;;;;;;;23.42;17.52;;;;;;;9.55;77.03;97442.48;1739607;81;25236;-95
2021/09/15 04:56:38;;;;;;;24.15;16.97;;;;;;;9.57;77.02;97444.46;1726954;82;28193;-92
2021/09/15 04:59:04;;;;;;;25.43;18.20;;;;;;;9.58;76.97;97446.13;1739378;82;25997;-93
2021/09/15 05:01:31;;;;;;;28.05;18.30;;;;;;;9.61;77.02;97448.94;1708430;83;25656;-90
2021/09/15 05:03:57;;;;;;;30.60;18.65;;;;;;;9.62;77.00;97444.70;1715845;82;25715;-92
2021/09/15 05:06:24;;;;;;;25.30;18.75;;;;;;;9.66;77.08;97439.19;1699500;82;25702;-90
2021/09/15 05:08:52;;;;;;;28.85;20.25;;;;;;;9.68;77.14;97438.47;1727123;82;27546;-94
2021/09/15 05:11:19;;;;;;;31.65;19.87;;;;;;;9.66;77.27;97441.88;1726797;83;25712;-95
2021/09/15 05:13:46;;;;;;;32.20;20.45;;;;;;;9.65;77.45;97447.50;1724958;83;25744;-94
2021/09/15 05:16:12;;;;;;;28.47;20.72;;;;;;;9.64;77.59;97447.19;1710261;82;25837;-96
2021/09/15 05:18:39;;;;;;;31.12;21.25;;;;;;;9.67;77.66;97452.98;1729216;83;25256;-96
2021/09/15 05:21:06;;;;;;;34.15;20.43;;;;;;;9.71;77.79;97452.89;1718744;83;27335;-96
2021/09/15 05:23:34;;;;;;;27.27;18.73;;;;;;;9.77;77.94;97451.26;1698322;82;25284;-93
2021/09/15 05:26:00;;;;;;;28.57;20.02;;;;;;;9.84;78.01;97449.39;1725227;82;25286;-96
2021/09/15 05:28:27;;;;;;;33.30;20.00;;;;;;;9.89;78.06;97448.27;1727407;83;25759;-96
2021/09/15 05:30:54;;;;;;;31.55;19.50;;;;;;;9.97;78.15;97445.88;1727519;82;25586;-96
2021/09/15 05:33:20;;;;;;;33.48;19.67;;;;;;;10.04;78.22;97443.48;1720338;82;27610;-95
2021/09/15 05:35:47;;;;;;;29.40;18.57;;;;;;;10.11;78.42;97442.98;1714731;81;25353;-95
2021/09/15 05:38:13;;;;;;;28.98;19.42;;;;;;;10.16;78.59;97447.73;1708428;82;25267;-95
2021/09/15 05:40:40;;;;;;;32.70;19.85;;;;;;;10.18;78.60;97446.19;1728935;82;25724;-96
2021/09/15 05:43:06;;;;;;;30.30;19.52;;;;;;;10.20;78.61;97440.94;1728304;81;25686;-96
2021/09/15 05:45:33;;;;;;;32.55;19.42;;;;;;;10.26;78.72;97436.07;1727247;83;27601;-96
2021/09/15 05:48:00;;;;;;;30.57;20.00;;;;;;;10.30;78.77;97433.77;1727036;81;25749;-94
2021/09/15 05:50:26;;;;;;;33.45;19.45;;;;;;;10.35;78.79;97429.93;1727095;82;25339;-92
2021/09/15 05:52:53;;;;;;;27.70;19.50;;;;;;;10.43;78.91;97427.00;1727501;82;25888;-95
2021/09/15 05:55:19;;;;;;;26.73;19.42;;;;;;;10.52;78.82;97424.39;1727249;82;25299;-96
2021/09/15 05:57:46;;;;;;;31.62;18.90;;;;;;;10.58;78.74;97426.26;1727626;82;27430;-94
2021/09/15 06:00:13;;;;;;;25.23;20.02;;;;;;;10.61;78.88;97423.66;1727335;81;25904;-91
2021/09/15 06:02:40;;;;;;;25.30;19.75;;;;;;;10.66;78.84;97423.84;1727215;82;25932;-96
2021/09/15 06:05:07;;;;;;;28.20;19.45;;;;;;;10.73;78.89;97415.23;1726838;82;26236;-94
2021/09/15 06:07:34;;;;;;;30.30;20.40;;;;;;;10.80;78.97;97420.08;1726983;83;25687;-95
2021/09/15 06:10:00;;;;;;;28.45;19.80;;;;;;;10.86;78.98;97415.19;1727273;83;27544;-96
2021/09/15 06:12:27;;;;;;;26.87;19.37;;;;;;;10.94;79.01;97414.94;1727024;82;25752;-95
2021/09/15 06:14:54;;;;;;;27.73;18.92;;;;;;;11.02;79.03;97410.64;1727326;83;26031;-95
2021/09/15 06:17:21;;;;;;;27.10;18.62;;;;;;;11.12;79.02;97401.55;1727329;82;25883;-96
2021/09/15 06:19:47;;;;;;;28.23;19.57;;;;;;;11.22;78.99;97395.72;1708046;83;25292;-95
2021/09/15 06:22:14;;;;;;;27.35;19.67;;;;;;;11.33;78.99;97395.55;1709049;83;27530;-93
2021/09/15 06:24:40;;;;;;;23.85;20.25;;;;;;;11.43;78.99;97398.09;1708115;82;25527;-95
2021/09/15 06:27:07;;;;;;;28.70;18.92;;;;;;;11.53;79.01;97397.61;1726128;81;25315;-93
2021/09/15 06:29:33;;;;;;;27.50;19.90;;;;;;;11.63;79.01;97394.42;1727863;81;25804;-96
2021/09/15 06:32:00;;;;;;;25.08;19.48;;;;;;;11.72;79.03;97393.93;1727872;82;25983;-94
2021/09/15 06:34:27;;;;;;;29.30;20.95;;;;;;;11.82;79.03;97390.27;1727375;82;27424;-95
2021/09/15 06:36:53;;;;;;;28.30;20.35;;;;;;;11.94;79.04;97399.03;1727307;82;25805;-95
2021/09/15 06:39:20;;;;;;;25.40;20.90;;;;;;;12.05;79.08;97392.90;1727993;81;25757;-96
2021/09/15 06:41:47;;;;;;;32.88;21.12;;;;;;;12.17;79.16;97393.84;1727663;81;25669;-93
2021/09/15 06:44:13;;;;;;;28.47;20.52;;;;;;;12.29;79.18;97388.53;1727329;82;25626;-93
2021/09/15 06:46:40;;;;;;;29.10;20.90;;;;;;;12.42;79.16;97389.23;1727459;81;27530;-93
2021/09/15 06:49:06;;;;;;;31.48;21.10;;;;;;;12.53;79.18;97387.14;1726205;81;25603;-90
2021/09/15 06:51:33;;;;;;;33.65;22.10;;;;;;;12.62;79.12;97388.49;1709371;82;25959;-93
2021/09/15 06:54:00;;;;;;;28.57;21.23;;;;;;;12.73;79.10;97383.38;1709466;82;25710;-94
2021/09/15 06:56:26;;;;;;;32.85;22.37;;;;;;;12.82;79.03;97386.08;1712341;83;25810;-95
2021/09/15 06:58:53;;;;;;;32.42;24.07;;;;;;;12.94;79.02;97380.20;1696779;84;28073;-93
2021/09/15 07:01:24;;;;;;;29.92;21.65;;;;;;;13.06;78.90;97377.03;1696514;84;25775;-92
2021/09/15 07:03:48;;;;;;;28.05;21.33;;;;;;;13.18;78.97;97380.66;1696163;84;25891;-94
2021/09/15 07:06:14;;;;;;;28.23;21.55;;;;;;;13.29;78.83;97373.64;1696740;84;25772;-95
2021/09/15 07:08:41;;;;;;;27.50;20.50;;;;;;;13.41;78.90;97370.97;1696888;84;25853;-95
2021/09/15 07:11:07;;;;;;;28.67;21.10;;;;;;;13.52;78.90;97370.22;1697025;84;28244;-94
2021/09/15 07:13:34;;;;;;;27.13;20.37;;;;;;;13.65;78.89;97369.47;1696770;84;25811;-93
2021/09/15 07:16:01;;;;;;;31.23;21.20;;;;;;;13.79;78.81;97370.09;1694235;83;25775;-94
2021/09/15 07:18:28;;;;;;;28.12;20.05;;;;;;;13.95;78.74;97365.36;1696665;84;25858;-92
2021/09/15 07:20:56;;;;;;;22.90;19.05;;;;;;;14.11;78.65;97358.95;1696661;84;25726;-94
2021/09/15 07:23:22;;;;;;;24.67;19.17;;;;;;;14.28;78.50;97359.89;1696780;84;27662;-95
2021/09/15 07:25:49;;;;;;;19.17;17.00;;;;;;;14.47;78.35;97358.76;1696726;84;25279;-89
2021/09/15 07:28:15;;;;;;;23.30;17.67;;;;;;;14.70;78.15;97352.47;1696837;84;25761;-95
2021/09/15 07:30:42;;;;;;;21.68;17.00;;;;;;;15.00;78.00;97356.34;1696776;84;25796;-96
2021/09/15 07:33:09;;;;;;;18.30;15.83;;;;;;;15.37;77.90;97352.73;1697178;83;25248;-95
2021/09/15 07:35:35;;;;;;;20.27;16.07;;;;;;;15.75;77.24;97354.30;1697120;84;27374;-96
2021/09/15 07:38:02;;;;;;;25.25;16.45;;;;;;;16.09;76.73;97355.14;1696946;84;25984;-95
2021/09/15 07:40:30;;;;;;;18.55;15.15;;;;;;;16.52;76.53;97357.19;1710945;83;25730;-93
2021/09/15 07:42:57;;;;;;;17.77;14.30;;;;;;;16.99;76.09;97355.94;1697825;84;25696;-92
2021/09/15 07:45:24;;;;;;;19.00;14.23;;;;;;;17.44;75.57;97350.19;1697131;84;25722;-93
2021/09/15 07:47:51;;;;;;;18.45;13.85;;;;;;;17.87;74.93;97354.77;1696752;84;27366;-94
2021/09/15 07:50:17;;;;;;;17.70;13.80;;;;;;;18.25;74.35;97350.44;1713276;82;25792;-96
2021/09/15 07:52:44;;;;;;;17.02;13.48;;;;;;;18.60;73.86;97353.16;1726031;82;26487;-95
2021/09/15 07:55:11;;;;;;;16.12;12.80;;;;;;;18.93;73.17;97350.64;1727214;82;25823;-96
2021/09/15 07:57:43;;;;;;;19.27;13.40;;;;;;;19.27;72.46;97356.53;1727446;82;25268;-96
2021/09/15 08:00:11;;;;;;;;;;;;;;;19.60;71.91;97362.95;1726992;83;27383;-96
2021/09/15 08:02:37;;;;;;;15.13;12.23;;;;;;;19.95;70.62;97354.52;1711554;82;25572;-96
2021/09/15 08:05:05;;;;;;;16.15;12.80;;;;;;;20.16;69.97;97358.95;1728084;81;25276;-96
2021/09/15 08:07:31;;;;;;;14.03;12.53;;;;;;;20.33;69.64;97354.54;1710853;83;25810;-96
2021/09/15 08:09:58;;;;;;;14.65;12.43;;;;;;;20.66;69.34;97350.41;1730146;82;25287;-96
2021/09/15 08:12:24;;;;;;;13.30;11.88;;;;;;;21.01;68.83;97352.27;1729339;82;28096;-95
2021/09/15 08:14:51;;;;;;;18.82;12.60;;;;;;;21.68;67.38;97348.14;1729361;82;25299;-86
2021/09/15 08:17:18;;;;;;;16.32;12.35;;;;;;;21.68;67.38;97348.14;1726865;82;25290;-94
2021/09/15 08:19:44;;;;;;;13.95;11.20;;;;;;;21.96;67.09;97349.34;1726782;82;25972;-93
2021/09/15 08:22:11;;;;;;;15.18;11.85;;;;;;;22.18;66.75;97348.37;1726805;81;25751;-93
2021/09/15 08:24:38;;;;;;;16.32;11.65;;;;;;;22.49;66.55;97342.87;1726982;82;26896;-92
2021/09/15 08:27:04;;;;;;;12.60;11.25;;;;;;;22.73;65.03;97333.83;1727005;82;25856;-94
2021/09/15 08:29:31;;;;;;;13.40;11.65;;;;;;;22.90;64.63;97334.24;1706730;81;25770;-95
2021/09/15 08:31:57;;;;;;;13.83;11.40;;;;;;;23.15;64.68;97339.46;1727721;81;25716;-94
2021/09/15 08:34:24;;;;;;;13.78;11.85;;;;;;;23.41;64.42;97339.14;1707512;81;25709;-95
2021/09/15 08:36:50;;;;;;;14.13;11.88;;;;;;;23.70;64.04;97333.80;1727083;82;27538;-95
2021/09/15 08:39:17;;;;;;;15.28;11.18;;;;;;;23.90;63.18;97334.63;1727459;81;25740;-94
2021/09/15 08:41:46;;;;;;;14.68;11.08;;;;;;;24.08;62.67;97337.09;1726989;82;25279;-96
2021/09/15 08:44:13;;;;;;;12.55;11.25;;;;;;;24.14;62.23;97331.78;1727191;81;26322;-95
2021/09/15 08:46:42;;;;;;;11.73;10.60;;;;;;;24.22;61.45;97331.08;1726827;83;25814;-96
2021/09/15 08:49:10;;;;;;;12.07;10.78;;;;;;;24.24;61.21;97326.13;1727140;83;27547;-90
2021/09/15 08:51:37;;;;;;;12.05;10.90;;;;;;;24.33;61.05;97327.06;1722519;82;25893;-96
2021/09/15 08:54:04;;;;;;;13.40;10.90;;;;;;;24.48;60.86;97318.53;1727311;81;25932;-95
2021/09/15 08:56:31;;;;;;;13.28;10.58;;;;;;;24.63;60.41;97314.69;1727088;83;25845;-94
2021/09/15 08:58:57;;;;;;;13.05;10.38;;;;;;;24.78;60.13;97313.82;1726919;81;25500;-94
2021/09/15 09:01:25;;;;;;;13.48;9.90;;;;;;;24.86;59.52;97310.11;1727172;82;28221;-92
2021/09/15 09:03:55;;;;;;;12.00;9.68;;;;;;;24.93;59.35;97306.41;1727236;81;25816;-94
2021/09/15 09:06:30;;;;;;;14.00;9.75;;;;;;;25.09;58.82;97316.03;1727039;82;25801;-93
2021/09/15 09:08:57;;;;;;;19.32;10.50;;;;;;;25.24;58.52;97305.24;1727182;81;26413;-91
2021/09/15 09:11:30;;;;;;;10.32;8.63;;;;;;;25.39;57.79;97304.90;1727113;81;25781;-95
2021/09/15 09:14:01;;;;;;;11.80;9.28;;;;;;;25.50;57.08;97300.78;1727011;82;27228;-87
2021/09/15 09:16:48;;;;;;;13.10;9.95;;;;;;;25.58;57.30;97304.78;1727152;82;25725;-92
2021/09/15 09:19:18;;;;;;;13.08;9.48;;;;;;;25.68;56.98;97299.05;1706388;81;25284;-94
2021/09/15 09:21:52;;;;;;;13.80;9.60;;;;;;;25.83;56.54;97301.47;1703589;83;25879;-92
2021/09/15 09:24:24;;;;;;;10.82;8.33;;;;;;;25.98;56.12;97296.94;1726639;82;25722;-92
2021/09/15 09:26:58;;;;;;;10.93;9.10;;;;;;;26.15;55.53;97292.93;1703517;83;28316;-95
2021/09/15 09:29:31;;;;;;;11.20;8.83;;;;;;;26.30;55.18;97288.19;1739687;81;25872;-95
2021/09/15 09:32:10;;;;;;;10.25;8.18;;;;;;;26.40;55.17;97282.38;1727720;81;25825;-92
2021/09/15 09:34:50;;;;;;;11.80;8.20;;;;;;;26.55;54.95;97277.84;1739998;82;25841;-95
2021/09/15 09:37:20;;;;;;;12.53;8.15;;;;;;;26.55;53.93;97279.22;1714146;83;25729;-94
2021/09/15 09:39:55;;;;;;;9.58;8.23;;;;;;;26.69;53.60;97274.39;1711423;82;27493;-94
2021/09/15 09:42:28;;;;;;;9.83;8.83;;;;;;;26.82;53.54;97269.88;1717464;82;25713;-94
2021/09/15 09:45:11;;;;;;;10.10;9.10;;;;;;;27.05;53.25;97260.98;1717724;82;25730;-93
2021/09/15 09:47:38;;;;;;;10.85;8.35;;;;;;;27.19;52.79;97262.47;1717311;82;26466;-94
2021/09/15 09:50:15;;;;;;;11.28;8.45;;;;;;;27.28;52.11;97269.44;1717342;82;25785;-92
2021/09/15 09:53:00;;;;;;;11.28;8.90;;;;;;;27.31;52.16;97271.55;1713359;82;28069;-93
2021/09/15 09:55:37;;;;;;;11.15;7.53;;;;;;;27.38;52.05;97264.97;1712766;83;25799;-92
2021/09/15 09:58:05;;;;;;;7.70;6.90;;;;;;;27.51;51.78;97264.02;1709638;82;25789;-95
2021/09/15 10:00:33;;;;;;;8.65;6.35;;;;;;;27.62;51.27;97263.73;1709757;82;25753;-92
2021/09/15 10:03:05;;;;;;;8.40;7.60;;;;;;;27.74;51.01;97255.58;1709559;83;25840;-94
2021/09/15 10:05:31;;;;;;;7.87;7.08;;;;;;;27.83;50.50;97256.39;1713524;82;27452;-92
2021/09/15 10:07:59;;;;;;;8.98;6.40;;;;;;;27.87;49.73;97251.83;1711659;83;25682;-94
2021/09/15 10:10:26;;;;;;;12.63;6.65;;;;;;;27.88;49.23;97245.96;1709311;82;25943;-94
2021/09/15 10:12:56;;;;;;;9.25;6.75;;;;;;;27.86;48.94;97254.36;1709356;83;25714;-92
2021/09/15 10:15:23;;;;;;;9.40;7.70;;;;;;;27.75;48.40;97246.94;1709477;83;25747;-90
2021/09/15 10:17:55;;;;;;;8.38;7.55;;;;;;;27.69;48.88;97248.80;1713936;83;28148;-90
2021/09/15 10:20:28;;;;;;;8.38;6.80;;;;;;;27.66;48.64;97248.05;1710318;83;25868;-92
2021/09/15 10:22:56;;;;;;;7.10;6.40;;;;;;;27.68;48.50;97253.53;1693558;83;25842;-93
2021/09/15 10:25:40;;;;;;;10.23;6.47;;;;;;;27.68;48.48;97247.98;1709206;82;25915;-93
2021/09/15 10:28:10;;;;;;;8.80;7.08;;;;;;;27.72;48.44;97240.66;1694479;83;25869;-92
2021/09/15 10:30:54;;;;;;;7.58;6.78;;;;;;;27.71;48.24;97247.34;1709389;82;27449;-94
2021/09/15 10:33:41;;;;;;;9.40;7.42;;;;;;;27.69;48.06;97245.45;1706845;82;25693;-90
2021/09/15 10:36:22;;;;;;;10.40;6.25;;;;;;;27.67;47.85;97238.59;1705129;83;25754;-93
2021/09/15 10:39:03;;;;;;;8.78;7.65;;;;;;;27.67;47.47;97237.21;1712190;83;25739;-89
2021/09/15 10:41:41;;;;;;;8.75;7.10;;;;;;;27.65;47.81;97232.59;1713453;83;25710;-92
2021/09/15 10:44:14;;;;;;;7.87;7.08;;;;;;;27.69;47.78;97243.25;1714089;83;28303;-92
2021/09/15 10:46:43;;;;;;;10.72;7.53;;;;;;;27.71;47.85;97240.98;1713621;83;25758;-92
2021/09/15 10:49:27;;;;;;;7.60;6.62;;;;;;;27.70;47.87;97239.34;1711719;83;26221;-94
2021/09/15 10:52:15;;;;;;;11.57;7.65;;;;;;;27.68;47.83;97233.30;1694825;83;26458;-93
2021/09/15 10:54:55;;;;;;;11.28;6.90;;;;;;;27.70;48.14;97226.86;1739527;82;25770;-91
2021/09/15 10:57:32;;;;;;;8.40;7.08;;;;;;;27.71;47.95;97224.34;1725912;82;27491;-90
2021/09/15 11:00:21;;;;;;;8.38;7.22;;;;;;;27.70;47.84;97218.55;1726466;81;25753;-90
2021/09/15 11:02:49;;;;;;;7.25;6.60;;;;;;;27.72;48.07;97212.11;1739760;82;26224;-92
2021/09/15 11:05:41;;;;;;;9.03;7.47;;;;;;;27.69;47.43;97212.19;1739531;82;25846;-90
2021/09/15 11:08:12;;;;;;;8.55;7.20;;;;;;;27.68;47.82;97215.28;1727036;83;25713;-92
2021/09/15 11:10:42;;;;;;;7.70;6.90;;;;;;;27.62;47.18;97206.89;1739500;82;27377;-91
2021/09/15 11:13:15;;;;;;;8.83;7.17;;;;;;;27.56;46.96;97195.95;1739418;82;25921;-88
2021/09/15 11:15:48;;;;;;;9.30;6.67;;;;;;;27.55;47.17;97191.55;1691532;83;26527;-89
2021/09/15 11:18:24;;;;;;;8.40;6.28;;;;;;;27.57;46.67;97201.74;1739567;82;25706;-87
2021/09/15 11:21:11;;;;;;;7.22;6.53;;;;;;;27.62;46.55;97208.28;1739692;82;25848;-88
2021/09/15 11:23:34;;;;;;;6.95;6.20;;;;;;;27.63;46.45;97200.20;1725207;82;27341;-90
2021/09/15 11:26:03;;;;;;;9.80;6.83;;;;;;;27.63;46.28;97198.83;1726973;81;25764;-91
2021/09/15 11:28:29;;;;;;;10.20;6.47;;;;;;;27.64;45.96;97197.69;1726833;82;25825;-92
2021/09/15 11:31:02;;;;;;;9.88;6.90;;;;;;;27.62;46.03;97199.96;1726860;81;25840;-91
2021/09/15 11:33:33;;;;;;;7.45;6.42;;;;;;;27.63;46.49;97189.12;1717981;83;25737;-90